Time;durP1;ratioP1;P1;durP2;ratioP2;P2;SDS_P1;SDS_P2;PMS_P1;PMS_P2;Temp;Humidity;BMP_temperature;BMP_pressure;BME280_temperature;BME280_humidity;BME280_pressure;Samples;Min_cycle;Max_cycle;Signal;HPM_P1;HPM_P2
2023/10/07 10:05:41;;;;;;;10.95;8.70;;;;;;;;;;5033927;28;20045;-81
2023/10/07 10:08:21;;;;;;;10.30;8.55;;;;;;;;;;5054460;28;20053;-83
2023/10/07 10:10:57;;;;;;;9.35;8.23;;;;;;;;;;5054193;28;20028;-80
2023/10/07 10:14:16;;;;;;;11.43;8.00;;;;;;;;;;5054234;28;20021;-79
2023/10/07 10:16:44;;;;;;;10.25;8.48;;;;;;;;;;5052040;28;20450;-83
2023/10/07 10:19:22;;;;;;;12.52;8.25;;;;;;;;;;5053836;28;20059;-86
2023/10/07 10:21:51;;;;;;;11.13;8.90;;;;;;;;;;5054054;28;20537;-86
2023/10/07 10:24:22;;;;;;;9.85;7.97;;;;;;;;;;5054133;28;20075;-83
2023/10/07 10:26:50;;;;;;;10.05;8.13;;;;;;;;;;5054010;28;20036;-82
2023/10/07 10:29:25;;;;;;;9.60;8.15;;;;;;;;;;5053942;28;20033;-81
2023/10/07 10:32:00;;;;;;;12.13;9.45;;;;;;;;;;5052530;28;20498;-84
2023/10/07 10:34:26;;;;;;;10.68;8.05;;;;;;;;;;5054199;28;20118;-82
2023/10/07 10:36:55;;;;;;;9.55;8.43;;;;;;;;;;5052692;28;20043;-80
2023/10/07 10:39:25;;;;;;;10.40;8.00;;;;;;;;;;5053742;28;20033;-81
2023/10/07 10:41:54;;;;;;;9.70;8.52;;;;;;;;;;5053667;28;20021;-81
2023/10/07 10:44:21;;;;;;;11.02;8.02;;;;;;;;;;5053918;28;20025;-78
2023/10/07 10:46:48;;;;;;;9.35;7.90;;;;;;;;;;5053920;28;20029;-79
2023/10/07 10:49:18;;;;;;;9.35;8.32;;;;;;;;;;5053640;28;20031;-80
2023/10/07 10:51:54;;;;;;;10.30;8.65;;;;;;;;;;5053934;28;20027;-79
2023/10/07 10:54:22;;;;;;;8.57;7.45;;;;;;;;;;5055671;28;20024;-87
2023/10/07 10:56:58;;;;;;;9.15;7.78;;;;;;;;;;5056385;28;20492;-81
2023/10/07 10:59:44;;;;;;;8.60;7.70;;;;;;;;;;5054279;28;20035;-80
2023/10/07 11:02:17;;;;;;;9.80;7.13;;;;;;;;;;5055650;28;20025;-81
2023/10/07 11:05:01;;;;;;;12.38;8.45;;;;;;;;;;5054928;28;20037;-82
2023/10/07 11:07:27;;;;;;;10.00;7.57;;;;;;;;;;5061888;28;20052;-79
2023/10/07 11:09:53;;;;;;;8.15;7.32;;;;;;;;;;5063232;28;20025;-82
2023/10/07 11:12:20;;;;;;;8.85;7.68;;;;;;;;;;5061047;28;20074;-85
2023/10/07 11:14:49;;;;;;;9.70;7.70;;;;;;;;;;5060036;28;20048;-84
2023/10/07 11:17:18;;;;;;;9.30;7.90;;;;;;;;;;5060698;28;20112;-78
2023/10/07 11:19:44;;;;;;;;;;;;;;;;;;5069731;28;20069;-81
2023/10/07 11:22:22;;;;;;;9.88;7.55;;;;;;;;;;5073268;28;19913;-82
2023/10/07 11:24:50;;;;;;;9.77;7.70;;;;;;;;;;5061920;28;20587;-85
2023/10/07 11:27:23;;;;;;;11.98;8.63;;;;;;;;;;5056948;28;20048;-82
2023/10/07 11:30:01;;;;;;;9.57;7.60;;;;;;;;;;5057308;28;20025;-81
2023/10/07 11:32:31;;;;;;;8.93;7.28;;;;;;;;;;5057203;28;20094;-85
2023/10/07 11:34:59;;;;;;;10.50;7.78;;;;;;;;;;5056932;28;20045;-82
2023/10/07 11:37:27;;;;;;;9.13;6.97;;;;;;;;;;5055672;28;20085;-84
2023/10/07 11:39:53;;;;;;;7.80;6.60;;;;;;;;;;5056851;28;20111;-84
2023/10/07 11:42:21;;;;;;;7.95;7.15;;;;;;;;;;5056990;28;20064;-85
2023/10/07 11:44:55;;;;;;;9.43;6.85;;;;;;;;;;5059175;28;20037;-84
2023/10/07 11:47:23;;;;;;;7.78;6.90;;;;;;;;;;5061294;28;20025;-83
2023/10/07 11:49:49;;;;;;;9.38;7.13;;;;;;;;;;5061165;28;20114;-84
2023/10/07 11:52:19;;;;;;;9.32;7.55;;;;;;;;;;5062216;28;20028;-84
2023/10/07 11:54:46;;;;;;;9.30;7.43;;;;;;;;;;5061652;28;20021;-85
2023/10/07 11:57:12;;;;;;;10.95;7.53;;;;;;;;;;5062803;28;20021;-83
2023/10/07 11:59:41;;;;;;;8.82;7.20;;;;;;;;;;5059488;28;20021;-81
2023/10/07 12:02:14;;;;;;;9.13;7.97;;;;;;;;;;5057811;28;20108;-83
2023/10/07 12:04:47;;;;;;;11.23;8.23;;;;;;;;;;5057258;28;20045;-83
2023/10/07 12:07:14;;;;;;;8.75;7.47;;;;;;;;;;5057193;28;20018;-84
2023/10/07 12:09:41;;;;;;;8.82;7.80;;;;;;;;;;5056686;28;20021;-84
2023/10/07 12:12:09;;;;;;;9.77;7.78;;;;;;;;;;5056477;28;20048;-82
2023/10/07 12:14:36;;;;;;;8.77;7.73;;;;;;;;;;5056818;28;20482;-83
2023/10/07 12:17:03;;;;;;;8.63;7.72;;;;;;;;;;5055282;28;20106;-83
2023/10/07 12:19:30;;;;;;;14.23;6.97;;;;;;;;;;5057355;28;20033;-84
2023/10/07 12:21:57;;;;;;;9.18;7.20;;;;;;;;;;5056213;28;20025;-86
2023/10/07 12:24:22;;;;;;;9.70;7.88;;;;;;;;;;5056665;28;20475;-85
2023/10/07 12:26:50;;;;;;;10.25;7.60;;;;;;;;;;5056582;28;20036;-85
2023/10/07 12:29:19;;;;;;;10.30;7.13;;;;;;;;;;5056124;28;20116;-86
2023/10/07 12:31:47;;;;;;;9.05;7.13;;;;;;;;;;5056332;28;20033;-84
2023/10/07 12:34:14;;;;;;;8.70;6.88;;;;;;;;;;5056206;28;20055;-86
2023/10/07 12:36:40;;;;;;;10.40;7.53;;;;;;;;;;5056523;28;20495;-86
2023/10/07 12:39:14;;;;;;;9.30;7.20;;;;;;;;;;5056128;28;20036;-82
2023/10/07 12:41:42;;;;;;;13.38;7.28;;;;;;;;;;5056149;28;20537;-87
2023/10/07 12:44:08;;;;;;;10.23;6.80;;;;;;;;;;5056382;28;20089;-86
2023/10/07 12:46:38;;;;;;;9.63;7.70;;;;;;;;;;5055621;28;20265;-86
2023/10/07 12:49:10;;;;;;;9.45;7.07;;;;;;;;;;5056137;28;20112;-86
2023/10/07 12:51:41;;;;;;;13.75;7.97;;;;;;;;;;5055959;28;20025;-87
2023/10/07 12:54:09;;;;;;;11.18;7.90;;;;;;;;;;5055976;28;20048;-87
2023/10/07 12:56:36;;;;;;;10.32;7.88;;;;;;;;;;5054517;28;20147;-88
2023/10/07 12:59:24;;;;;;;10.32;7.25;;;;;;;;;;5055734;28;20489;-87
2023/10/07 13:01:51;;;;;;;9.93;7.35;;;;;;;;;;5055486;28;20035;-86
2023/10/07 13:04:19;;;;;;;10.20;6.97;;;;;;;;;;5054330;28;20029;-88
2023/10/07 13:06:46;;;;;;;8.45;7.05;;;;;;;;;;5055724;28;20037;-87
2023/10/07 13:09:16;;;;;;;7.72;6.93;;;;;;;;;;5056146;28;20100;-88
2023/10/07 13:11:43;;;;;;;8.13;7.13;;;;;;;;;;5056708;28;20037;-93
2023/10/07 13:14:08;;;;;;;7.72;6.90;;;;;;;;;;5057575;28;20029;-89
2023/10/07 13:16:37;;;;;;;8.60;6.47;;;;;;;;;;5055686;28;20029;-85
2023/10/07 13:19:03;;;;;;;8.05;6.82;;;;;;;;;;5055628;28;20021;-81
2023/10/07 13:21:29;;;;;;;8.90;8.00;;;;;;;;;;5055477;28;20033;-81
2023/10/07 13:23:57;;;;;;;8.65;7.50;;;;;;;;;;5055333;28;20130;-81
2023/10/07 13:26:23;;;;;;;8.75;7.70;;;;;;;;;;5055362;28;20029;-84
2023/10/07 16:16:32;;;;;;;9.77;7.18;;;;;;;;;;5053248;28;20057;-88
2023/10/07 16:24:22;;;;;;;8.88;7.20;;;;;;;;;;6086744;22;20017;-83
2023/10/07 16:26:47;;;;;;;9.13;7.63;;;;;;;;;;5046534;28;20041;-83
2023/10/07 16:29:12;;;;;;;10.15;7.65;;;;;;;;;;5036182;28;20034;-88
2023/10/07 16:31:38;;;;;;;8.38;7.40;;;;;;;;;;5036021;28;20037;-83
2023/10/07 16:34:04;;;;;;;10.68;8.20;;;;;;;;;;5036096;28;20033;-85
2023/10/07 16:36:30;;;;;;;11.27;9.32;;;;;;;;;;5036505;28;20025;-86
2023/10/07 16:38:55;;;;;;;10.32;7.93;;;;;;;;;;5036165;28;20052;-84
2023/10/07 16:41:22;;;;;;;10.00;7.68;;;;;;;;;;5036318;28;20053;-86
2023/10/07 16:43:48;;;;;;;9.85;7.78;;;;;;;;;;5054694;28;20025;-86
2023/10/07 16:46:14;;;;;;;10.02;7.70;;;;;;;;;;5056145;28;20064;-83
2023/10/07 16:48:41;;;;;;;8.65;7.75;;;;;;;;;;5056487;28;20063;-88
2023/10/07 16:51:09;;;;;;;11.13;8.93;;;;;;;;;;5056673;28;20080;-86
2023/10/07 16:53:36;;;;;;;10.20;8.88;;;;;;;;;;5055474;28;20094;-80
2023/10/07 16:56:09;;;;;;;8.70;7.80;;;;;;;;;;5056010;28;20087;-80
2023/10/07 16:58:35;;;;;;;10.55;8.20;;;;;;;;;;5055454;28;20399;-82
2023/10/07 17:01:01;;;;;;;9.95;8.30;;;;;;;;;;5035499;28;20100;-81
2023/10/07 17:03:27;;;;;;;12.00;9.13;;;;;;;;;;5035253;28;20077;-83
2023/10/07 17:05:54;;;;;;;11.05;9.50;;;;;;;;;;5036908;28;20021;-91
2023/10/07 17:08:23;;;;;;;10.18;8.73;;;;;;;;;;5037655;28;20037;-86
2023/10/07 17:10:48;;;;;;;9.23;8.23;;;;;;;;;;5035603;28;20479;-84
2023/10/07 17:13:14;;;;;;;10.00;8.13;;;;;;;;;;5035344;28;20040;-83
2023/10/07 17:15:41;;;;;;;12.15;8.48;;;;;;;;;;5034984;28;20100;-80
2023/10/07 17:18:09;;;;;;;10.13;8.25;;;;;;;;;;5035010;28;20040;-87
2023/10/07 17:20:36;;;;;;;11.30;8.25;;;;;;;;;;5035216;28;20021;-86
2023/10/07 17:23:06;;;;;;;11.23;9.10;;;;;;;;;;5035271;28;20029;-83
2023/10/07 17:25:32;;;;;;;8.90;8.00;;;;;;;;;;5034655;28;20060;-83
2023/10/07 17:27:58;;;;;;;14.15;10.57;;;;;;;;;;5034492;28;20494;-84
2023/10/07 17:30:30;;;;;;;10.77;9.30;;;;;;;;;;5034926;28;20451;-82
2023/10/07 17:33:02;;;;;;;12.02;9.23;;;;;;;;;;5036646;28;20372;-81
2023/10/07 17:35:29;;;;;;;10.07;8.13;;;;;;;;;;5054630;28;20099;-81
2023/10/07 17:37:55;;;;;;;11.65;9.38;;;;;;;;;;5054496;28;20059;-83
2023/10/07 17:40:21;;;;;;;9.90;8.00;;;;;;;;;;5054552;28;20033;-81
2023/10/07 17:42:47;;;;;;;11.07;8.57;;;;;;;;;;5053407;28;20479;-84
2023/10/07 17:45:14;;;;;;;8.35;7.00;;;;;;;;;;5054531;28;20034;-85
2023/10/07 17:47:43;;;;;;;10.32;7.82;;;;;;;;;;5054828;28;20475;-85
2023/10/07 17:50:10;;;;;;;8.52;7.50;;;;;;;;;;5054634;28;20501;-85
2023/10/07 17:52:36;;;;;;;9.93;7.93;;;;;;;;;;5054484;28;20104;-84
2023/10/07 17:55:09;;;;;;;13.73;9.05;;;;;;;;;;5054301;28;20483;-85
2023/10/07 17:57:36;;;;;;;10.25;8.38;;;;;;;;;;5054323;28;20029;-85
2023/10/07 18:00:05;;;;;;;11.98;8.90;;;;;;;;;;5054317;28;20083;-83
2023/10/07 18:02:33;;;;;;;13.15;9.80;;;;;;;;;;5053970;28;20025;-82
2023/10/07 18:04:59;;;;;;;11.38;8.80;;;;;;;;;;5054115;28;20028;-82
2023/10/07 18:07:25;;;;;;;10.85;9.27;;;;;;;;;;5054381;28;20111;-81
2023/10/07 18:09:51;;;;;;;11.00;8.88;;;;;;;;;;5054101;28;20024;-82
2023/10/07 18:12:17;;;;;;;12.48;10.10;;;;;;;;;;5053860;28;20021;-81
2023/10/07 18:14:42;;;;;;;12.98;10.43;;;;;;;;;;5052317;28;20029;-82
2023/10/07 18:17:08;;;;;;;11.85;9.23;;;;;;;;;;5054093;28;20020;-81
2023/10/07 18:19:33;;;;;;;12.80;9.85;;;;;;;;;;5052847;28;20033;-82
2023/10/07 18:21:59;;;;;;;9.82;8.45;;;;;;;;;;5053794;28;20033;-82
2023/10/07 18:24:25;;;;;;;10.52;8.35;;;;;;;;;;5053940;28;20087;-82
2023/10/07 18:26:51;;;;;;;11.18;8.93;;;;;;;;;;5053763;28;20049;-81
2023/10/07 18:29:16;;;;;;;10.07;8.55;;;;;;;;;;5053857;28;20029;-82
2023/10/07 18:31:42;;;;;;;11.23;9.20;;;;;;;;;;5053781;28;20370;-82
2023/10/07 18:34:07;;;;;;;11.48;9.52;;;;;;;;;;5052486;28;20028;-82
2023/10/07 18:36:33;;;;;;;13.45;9.27;;;;;;;;;;5053907;28;20487;-82
2023/10/07 18:39:00;;;;;;;10.05;8.88;;;;;;;;;;5053775;28;20072;-82
2023/10/07 18:41:30;;;;;;;12.65;9.60;;;;;;;;;;5053577;28;20021;-82
2023/10/07 18:43:55;;;;;;;15.90;11.10;;;;;;;;;;5053726;28;20467;-83
2023/10/07 18:46:21;;;;;;;13.27;10.88;;;;;;;;;;5053612;28;20044;-81
2023/10/07 18:48:48;;;;;;;10.80;9.13;;;;;;;;;;5053460;28;20032;-82
2023/10/07 18:51:13;;;;;;;11.20;8.95;;;;;;;;;;5053759;28;20033;-82
2023/10/07 18:53:39;;;;;;;11.30;8.88;;;;;;;;;;5053531;28;20033;-83
2023/10/07 18:56:05;;;;;;;9.48;8.43;;;;;;;;;;5053449;28;20025;-82
2023/10/07 18:58:30;;;;;;;11.10;9.38;;;;;;;;;;5053520;28;20091;-82
2023/10/07 19:00:59;;;;;;;10.68;8.57;;;;;;;;;;5053651;28;20079;-82
2023/10/07 19:03:26;;;;;;;10.38;7.75;;;;;;;;;;5053599;28;20463;-81
2023/10/07 19:05:51;;;;;;;10.52;9.13;;;;;;;;;;5052157;28;20025;-82
2023/10/07 19:08:16;;;;;;;11.43;8.93;;;;;;;;;;5052006;28;20086;-83
2023/10/07 19:10:42;;;;;;;10.02;8.43;;;;;;;;;;5053468;28;20031;-82
2023/10/07 19:13:11;;;;;;;10.35;8.52;;;;;;;;;;5053311;28;20057;-81
2023/10/07 19:15:54;;;;;;;11.52;8.85;;;;;;;;;;5053143;28;20032;-84
2023/10/07 19:18:19;;;;;;;9.65;7.93;;;;;;;;;;5053451;28;20028;-85
2023/10/07 19:20:50;;;;;;;8.93;7.90;;;;;;;;;;5053269;28;20426;-81
2023/10/07 19:23:17;;;;;;;8.93;6.97;;;;;;;;;;5053426;28;20018;-81
2023/10/07 19:25:44;;;;;;;10.13;7.53;;;;;;;;;;5053100;28;20080;-82
2023/10/07 19:28:10;;;;;;;10.38;8.02;;;;;;;;;;5056297;28;20021;-80
2023/10/07 19:30:39;;;;;;;13.48;9.32;;;;;;;;;;5053815;28;20494;-81
2023/10/07 19:33:05;;;;;;;11.32;7.30;;;;;;;;;;5037151;28;20029;-81
2023/10/07 19:35:30;;;;;;;11.00;8.25;;;;;;;;;;5035799;28;20088;-83
2023/10/07 19:37:56;;;;;;;12.77;8.48;;;;;;;;;;5037385;28;20076;-82
2023/10/07 19:40:21;;;;;;;13.38;10.27;;;;;;;;;;5037226;28;20033;-83
2023/10/07 19:42:47;;;;;;;13.63;9.23;;;;;;;;;;5036879;28;20041;-83
2023/10/07 19:45:12;;;;;;;11.10;8.90;;;;;;;;;;5037097;28;20029;-82
2023/10/07 19:47:41;;;;;;;11.95;9.73;;;;;;;;;;5036820;28;20460;-82
2023/10/07 19:50:07;;;;;;;11.93;10.00;;;;;;;;;;5036948;28;20376;-83
2023/10/07 19:52:32;;;;;;;11.00;8.82;;;;;;;;;;5036786;28;20052;-82
2023/10/07 19:54:59;;;;;;;11.32;8.85;;;;;;;;;;5036823;28;20030;-85
2023/10/07 19:57:25;;;;;;;12.25;9.95;;;;;;;;;;5036737;28;20074;-85
2023/10/07 19:59:55;;;;;;;15.10;10.98;;;;;;;;;;5037099;28;20025;-84
2023/10/07 20:02:21;;;;;;;13.40;10.13;;;;;;;;;;5036554;28;20058;-84
2023/10/07 20:04:46;;;;;;;17.58;11.10;;;;;;;;;;5036795;28;20021;-84
2023/10/07 20:07:13;;;;;;;13.77;10.02;;;;;;;;;;5036740;28;20029;-84
2023/10/07 20:09:40;;;;;;;11.63;9.07;;;;;;;;;;5036570;28;20013;-83
2023/10/07 20:12:05;;;;;;;11.55;8.63;;;;;;;;;;5036524;28;20116;-83
2023/10/07 20:14:32;;;;;;;10.80;8.10;;;;;;;;;;5036677;28;20104;-84
2023/10/07 20:16:57;;;;;;;11.43;7.57;;;;;;;;;;5036388;28;20486;-81
2023/10/07 20:19:24;;;;;;;8.73;6.72;;;;;;;;;;5036189;28;20057;-82
2023/10/07 20:21:53;;;;;;;11.30;7.18;;;;;;;;;;5036378;28;20093;-83
2023/10/07 20:24:22;;;;;;;11.27;8.90;;;;;;;;;;5036453;28;20021;-83
2023/10/07 20:26:48;;;;;;;10.25;8.48;;;;;;;;;;5036157;28;20129;-83
2023/10/07 20:29:13;;;;;;;9.93;7.22;;;;;;;;;;5036233;28;20065;-83
2023/10/07 20:31:39;;;;;;;12.75;9.77;;;;;;;;;;5036025;28;20056;-83
2023/10/07 20:34:05;;;;;;;12.35;9.73;;;;;;;;;;5036357;28;20057;-82
2023/10/07 20:36:30;;;;;;;14.63;10.15;;;;;;;;;;5036295;28;20079;-84
2023/10/07 20:38:57;;;;;;;11.45;8.35;;;;;;;;;;5035313;28;20022;-82
2023/10/07 20:41:29;;;;;;;13.00;9.50;;;;;;;;;;5035925;28;20472;-82
2023/10/07 20:43:55;;;;;;;10.85;8.35;;;;;;;;;;5035723;28;20503;-81
2023/10/07 20:46:20;;;;;;;11.30;8.82;;;;;;;;;;5035948;28;20096;-81
2023/10/07 20:48:47;;;;;;;10.95;8.75;;;;;;;;;;5036094;28;20025;-80
2023/10/07 20:51:16;;;;;;;11.57;9.82;;;;;;;;;;5035951;28;20353;-84
2023/10/07 20:53:47;;;;;;;12.88;10.57;;;;;;;;;;5035681;28;20026;-81
2023/10/07 20:56:17;;;;;;;13.13;9.90;;;;;;;;;;5035654;28;20109;-83
2023/10/07 20:58:42;;;;;;;12.98;10.45;;;;;;;;;;5035448;28;20499;-82
2023/10/07 21:01:21;;;;;;;13.60;10.82;;;;;;;;;;5035811;28;20026;-83
2023/10/07 21:03:51;;;;;;;13.00;9.68;;;;;;;;;;5034248;28;20031;-83
2023/10/07 21:06:18;;;;;;;10.40;8.98;;;;;;;;;;5035505;28;20121;-85
2023/10/07 21:08:44;;;;;;;13.10;9.93;;;;;;;;;;5035714;28;20128;-83
2023/10/07 21:11:10;;;;;;;14.48;9.70;;;;;;;;;;5035612;28;20029;-82
2023/10/07 21:13:37;;;;;;;12.82;9.90;;;;;;;;;;5035318;28;20456;-83
2023/10/07 21:16:03;;;;;;;14.02;9.40;;;;;;;;;;5035375;28;20025;-83
2023/10/07 21:18:28;;;;;;;12.73;8.23;;;;;;;;;;5035392;28;20476;-82
2023/10/07 21:20:54;;;;;;;10.73;8.38;;;;;;;;;;5035481;28;20061;-83
2023/10/07 21:23:19;;;;;;;13.00;11.18;;;;;;;;;;5035079;28;20487;-81
2023/10/07 21:25:48;;;;;;;15.27;10.45;;;;;;;;;;5035043;28;20045;-82
2023/10/07 21:28:14;;;;;;;16.73;10.38;;;;;;;;;;5033763;28;20029;-81
2023/10/07 21:30:43;;;;;;;11.07;9.45;;;;;;;;;;5035030;28;20029;-82
2023/10/07 21:33:10;;;;;;;16.60;11.80;;;;;;;;;;5034801;28;20456;-84
2023/10/07 21:35:39;;;;;;;13.40;10.95;;;;;;;;;;5034966;28;20105;-83
2023/10/07 21:38:05;;;;;;;14.85;11.32;;;;;;;;;;5035099;28;20089;-83
2023/10/07 21:40:33;;;;;;;13.32;10.18;;;;;;;;;;5034791;28;20087;-82
2023/10/07 21:43:03;;;;;;;14.35;11.70;;;;;;;;;;5033487;28;20060;-83
2023/10/07 21:45:29;;;;;;;11.73;8.77;;;;;;;;;;5034653;28;20028;-81
2023/10/07 21:47:58;;;;;;;12.07;9.55;;;;;;;;;;5035078;28;20026;-81
2023/10/07 21:50:25;;;;;;;12.43;9.70;;;;;;;;;;5033836;28;20476;-82
2023/10/07 21:52:51;;;;;;;14.57;9.82;;;;;;;;;;5034665;28;20049;-83
2023/10/07 21:55:18;;;;;;;12.40;10.02;;;;;;;;;;5034766;28;20056;-82
2023/10/07 21:57:44;;;;;;;14.80;9.85;;;;;;;;;;5034613;28;20018;-83
2023/10/07 22:00:57;;;;;;;12.38;9.60;;;;;;;;;;5034593;28;20029;-81
2023/10/07 22:02:59;;;;;;;;;;;;;;;;;;5025861;28;20037;-81
2023/10/07 22:05:29;;;;;;;9.70;8.07;;;;;;;;;;5034467;28;19917;-82
2023/10/07 22:07:56;;;;;;;10.32;8.07;;;;;;;;;;5034312;28;20026;-83
2023/10/07 22:10:26;;;;;;;11.75;8.98;;;;;;;;;;5034634;28;20108;-82
2023/10/07 22:12:55;;;;;;;9.88;7.85;;;;;;;;;;5034141;28;20029;-82
2023/10/07 22:15:21;;;;;;;10.60;7.85;;;;;;;;;;5034762;28;20475;-83
2023/10/07 22:17:49;;;;;;;10.32;7.40;;;;;;;;;;5034118;28;20038;-82
2023/10/07 22:20:16;;;;;;;9.05;7.53;;;;;;;;;;5034198;28;20542;-83
2023/10/07 22:22:45;;;;;;;8.95;7.45;;;;;;;;;;5034046;28;20049;-81
2023/10/07 22:25:14;;;;;;;;;;;;;;;;;;5034264;28;20132;-83
2023/10/07 22:27:40;;;;;;;8.85;6.95;;;;;;;;;;5033919;28;19917;-82
2023/10/07 22:30:07;;;;;;;8.68;6.70;;;;;;;;;;5034224;28;20025;-82
2023/10/07 22:32:36;;;;;;;8.57;6.85;;;;;;;;;;5033782;28;20480;-86
2023/10/07 22:35:21;;;;;;;10.70;8.13;;;;;;;;;;5034395;28;20064;-84
2023/10/07 22:37:47;;;;;;;9.15;6.90;;;;;;;;;;5033925;28;20052;-84
